createdAt,value
2022-11-30T00:00:44.938Z,28.70
2022-11-30T00:01:44.910Z,33.40
2022-11-30T00:02:45.048Z,28.70
2022-11-30T00:03:44.941Z,26.50
2022-11-30T00:04:45.198Z,25.10
2022-11-30T00:05:44.868Z,26.80
2022-11-30T00:06:44.853Z,26.70
2022-11-30T00:07:44.914Z,25.20
2022-11-30T00:08:44.845Z,26.40
2022-11-30T00:09:44.838Z,26.50
2022-11-30T00:10:44.808Z,25.20
2022-11-30T00:11:44.818Z,25.10
2022-11-30T00:12:44.788Z,23.50
2022-11-30T00:13:44.780Z,24.60
2022-11-30T00:14:45.161Z,25.30
2022-11-30T00:15:44.758Z,23.50
2022-11-30T00:16:44.826Z,23.80
2022-11-30T00:17:44.736Z,24.70
2022-11-30T00:18:44.738Z,24.90
2022-11-30T00:19:44.712Z,21.20
2022-11-30T00:20:45.261Z,21.50
2022-11-30T00:21:44.689Z,21.50
2022-11-30T00:22:44.677Z,22.30
2022-11-30T00:23:44.684Z,20.50
2022-11-30T00:24:45.083Z,25.00
2022-11-30T00:25:44.651Z,23.70
2022-11-30T00:26:44.632Z,20.10
2022-11-30T00:27:44.624Z,22.20
2022-11-30T00:28:44.641Z,19.50
2022-11-30T00:29:44.617Z,22.70
2022-11-30T00:30:44.618Z,23.00
2022-11-30T00:31:44.582Z,22.70
2022-11-30T00:32:44.565Z,20.70
2022-11-30T00:33:44.557Z,22.60
2022-11-30T00:34:44.842Z,21.80
2022-11-30T00:35:44.551Z,21.10
2022-11-30T00:36:44.559Z,21.50
2022-11-30T00:37:44.533Z,20.70
2022-11-30T00:38:44.500Z,20.50
2022-11-30T00:39:44.491Z,19.90
2022-11-30T00:40:44.500Z,20.40
2022-11-30T00:41:44.471Z,20.50
2022-11-30T00:42:44.474Z,22.00
2022-11-30T00:43:44.445Z,21.10
2022-11-30T00:44:51.941Z,22.40
2022-11-30T00:45:44.477Z,21.60
2022-11-30T00:46:44.420Z,22.80
2022-11-30T00:47:44.410Z,21.70
2022-11-30T00:48:44.423Z,23.10
2022-11-30T00:49:44.389Z,20.80
2022-11-30T00:50:44.364Z,21.40
2022-11-30T00:51:44.483Z,21.20
2022-11-30T00:52:44.363Z,21.30
2022-11-30T00:53:44.343Z,21.80
2022-11-30T00:54:44.603Z,23.10
2022-11-30T00:55:44.336Z,21.30
2022-11-30T00:56:44.308Z,20.60
2022-11-30T00:57:44.308Z,22.60
2022-11-30T00:58:44.287Z,22.30
2022-11-30T00:59:44.308Z,21.30
2022-11-30T01:00:44.263Z,21.20
2022-11-30T01:01:44.318Z,21.70
2022-11-30T01:02:44.272Z,21.80
2022-11-30T01:03:44.224Z,23.30
2022-11-30T01:04:44.587Z,20.90
2022-11-30T01:05:44.223Z,20.00
2022-11-30T01:06:44.206Z,19.80
2022-11-30T01:07:44.283Z,19.60
2022-11-30T01:08:44.190Z,22.00
2022-11-30T01:09:44.166Z,19.90
2022-11-30T01:10:44.192Z,19.70
2022-11-30T01:11:44.172Z,20.80
2022-11-30T01:12:44.123Z,21.90
2022-11-30T01:13:44.146Z,20.20
2022-11-30T01:14:44.655Z,19.70
2022-11-30T01:15:44.230Z,19.60
2022-11-30T01:16:44.083Z,19.90
2022-11-30T01:17:44.070Z,19.60
2022-11-30T01:18:44.071Z,20.80
2022-11-30T01:19:44.062Z,20.50
2022-11-30T01:20:44.036Z,19.60
2022-11-30T01:21:44.028Z,20.40
2022-11-30T01:22:44.029Z,17.50
2022-11-30T01:23:44.025Z,19.30
2022-11-30T01:24:44.275Z,19.20
2022-11-30T01:25:43.987Z,18.20
2022-11-30T01:26:43.978Z,20.50
2022-11-30T01:27:43.984Z,20.50
2022-11-30T01:28:44.002Z,18.60
2022-11-30T01:29:43.954Z,19.80
2022-11-30T01:30:44.080Z,19.00
2022-11-30T01:31:43.917Z,19.00
2022-11-30T01:32:43.916Z,21.70
2022-11-30T23:10:29.047Z,31.40
2022-11-30T23:11:29.015Z,39.50
2022-11-30T23:12:57.339Z,38.10
2022-11-30T23:13:29.993Z,38.90
2022-11-30T23:14:28.975Z,39.00
2022-11-30T23:15:28.972Z,38.00
2022-11-30T23:16:29.074Z,38.00
2022-11-30T23:17:28.934Z,39.20
2022-11-30T23:18:28.947Z,40.50
2022-11-30T23:19:28.927Z,38.00
2022-11-30T23:20:28.963Z,41.50
2022-11-30T23:21:30.114Z,37.00
2022-11-30T23:22:28.893Z,39.50
2022-11-30T23:23:28.891Z,41.50
2022-11-30T23:24:28.892Z,41.40
2022-11-30T23:25:28.850Z,37.90
2022-11-30T23:26:28.862Z,44.30
2022-11-30T23:27:28.823Z,36.30
2022-11-30T23:28:28.814Z,42.30
2022-11-30T23:29:28.818Z,45.30
2022-11-30T23:30:28.808Z,40.00
2022-11-30T23:31:33.737Z,40.40
2022-11-30T23:32:29.792Z,40.20
2022-11-30T23:33:28.768Z,43.60
2022-11-30T23:34:28.801Z,42.30
2022-11-30T23:35:28.740Z,43.00
2022-11-30T23:36:28.732Z,43.00
2022-11-30T23:37:28.714Z,43.70
2022-11-30T23:38:28.708Z,41.10
2022-11-30T23:39:28.720Z,44.80
2022-11-30T23:40:28.693Z,40.60
2022-11-30T23:41:28.670Z,47.40
2022-11-30T23:42:28.681Z,41.00
2022-11-30T23:43:28.664Z,41.50
2022-11-30T23:44:28.657Z,46.50
2022-11-30T23:45:28.627Z,41.20
2022-11-30T23:46:28.702Z,41.80
2022-11-30T23:47:28.627Z,39.90
2022-11-30T23:48:28.617Z,36.40
2022-11-30T23:49:28.584Z,36.70
2022-11-30T23:50:28.577Z,35.70
2022-11-30T23:51:28.565Z,34.10
2022-11-30T23:52:28.580Z,36.20
2022-11-30T23:53:28.542Z,30.60
2022-11-30T23:54:28.533Z,28.80
2022-11-30T23:55:28.537Z,31.30
2022-11-30T23:56:28.511Z,28.40
2022-11-30T23:57:28.513Z,28.40
2022-11-30T23:58:28.524Z,28.20
2022-11-30T23:59:28.489Z,29.30
